Terminal Aerodrome Forecast
Issued by NWS

Home | Current Version | Previous Version | Text Only | Print | Product List | Glossary On
Versions: 1 2 3 4 5 6 7 8 9 10 11 12 13
000
FTUS43 KMQT 211122
TAFIWD
TAF
KIWD 211122Z 2112/2212 VRB03KT P6SM BKN100
     FM211800 13003KT P6SM BKN120
     FM212100 03003KT P6SM VCSH BKN080
     FM220300 01003KT 5SM BR OVC050
     FM220900 29004KT 4SM BR SCT080=

USA.gov is the U.S. government's official web portal to all federal, state and local government web resources and services.